Time;durP1;ratioP1;P1;durP2;ratioP2;P2;SDS_P1;SDS_P2;PMS_P1;PMS_P2;Temp;Humidity;BMP_temperature;BMP_pressure;BME280_temperature;BME280_humidity;BME280_pressure;Samples;Min_cycle;Max_cycle;Signal;HPM_P1;HPM_P2
2021/04/22 00:00:46;;;;;;;25.60;5.03;;;;;;;3.64;73.77;102478.84;5048593;28;20033;-75
2021/04/22 00:03:12;;;;;;;24.85;5.55;;;;;;;3.60;73.84;102485.16;5047216;28;20036;-75
2021/04/22 00:05:40;;;;;;;24.70;5.65;;;;;;;3.59;73.68;102486.13;5047966;28;20040;-78
2021/04/22 00:08:07;;;;;;;20.15;5.05;;;;;;;3.57;74.04;102487.97;5075741;27;20083;-76
2021/04/22 00:10:39;;;;;;;28.85;6.30;;;;;;;3.57;74.12;102495.00;5049479;28;20020;-75
2021/04/22 00:13:04;;;;;;;24.92;5.38;;;;;;;3.49;74.29;102490.06;5051240;28;20071;-75
2021/04/22 00:15:30;;;;;;;23.98;5.72;;;;;;;3.47;74.40;102484.84;5050357;28;20403;-75
2021/04/22 00:17:57;;;;;;;27.00;6.45;;;;;;;3.46;74.89;102487.56;5047716;28;20498;-75
2021/04/22 00:20:24;;;;;;;30.40;6.05;;;;;;;3.44;74.55;102492.91;5052544;28;20033;-75
2021/04/22 00:22:50;;;;;;;25.23;6.53;;;;;;;3.40;74.86;102486.03;5045203;28;20111;-75
2021/04/22 00:25:16;;;;;;;28.92;7.32;;;;;;;3.40;75.31;102493.94;5028777;28;20036;-75
2021/04/22 00:27:42;;;;;;;23.58;6.45;;;;;;;3.44;75.13;102481.50;5044176;28;20055;-75
2021/04/22 00:30:13;;;;;;;27.80;7.53;;;;;;;3.57;76.01;102492.38;5046824;28;20041;-75
2021/04/22 00:32:41;;;;;;;28.73;7.63;;;;;;;3.60;75.24;102493.09;5045780;28;20064;-76
2021/04/22 00:35:08;;;;;;;30.80;6.65;;;;;;;3.63;74.94;102497.41;5052082;28;20032;-76
2021/04/22 00:37:34;;;;;;;31.48;6.63;;;;;;;3.59;75.05;102490.53;5046848;28;20028;-75
2021/04/22 00:39:59;;;;;;;34.13;7.35;;;;;;;3.56;75.09;102498.56;5047365;28;20113;-76
2021/04/22 00:42:25;;;;;;;24.63;6.75;;;;;;;3.50;75.12;102482.09;5043558;28;20083;-75
2021/04/22 00:44:51;;;;;;;26.15;6.60;;;;;;;3.63;75.11;102494.75;5042473;28;20122;-76
2021/04/22 00:47:18;;;;;;;26.98;6.75;;;;;;;3.60;75.02;102501.00;5042819;28;20506;-75
2021/04/22 00:49:44;;;;;;;33.03;7.90;;;;;;;3.68;75.08;102495.38;5046728;28;20503;-75
2021/04/22 00:52:10;;;;;;;25.70;6.22;;;;;;;3.51;74.57;102472.38;5042375;28;20487;-76
2021/04/22 00:54:39;;;;;;;25.25;7.00;;;;;;;3.69;74.87;102499.75;5053032;28;20043;-75
2021/04/22 00:57:08;;;;;;;36.30;7.95;;;;;;;3.61;75.00;102492.16;5069027;28;20086;-75
2021/04/22 00:59:35;;;;;;;26.98;7.57;;;;;;;3.61;74.79;102507.16;5042211;28;20029;-75
2021/04/22 01:02:10;;;;;;;32.22;6.72;;;;;;;3.61;74.90;102505.38;5053105;28;20075;-76
2021/04/22 01:04:36;;;;;;;39.92;7.60;;;;;;;3.62;75.60;102507.09;5055209;28;20020;-78
2021/04/22 01:07:01;;;;;;;25.45;6.70;;;;;;;3.65;75.04;102506.13;5053245;28;20174;-75
2021/04/22 01:09:27;;;;;;;29.42;7.05;;;;;;;3.51;74.52;102497.00;5043142;28;20553;-75
2021/04/22 01:11:54;;;;;;;24.38;6.55;;;;;;;3.57;75.24;102506.44;5048427;28;20039;-75
2021/04/22 01:14:20;;;;;;;29.48;6.72;;;;;;;3.57;75.50;102498.53;5042317;28;20040;-75
2021/04/22 01:16:46;;;;;;;24.48;7.05;;;;;;;3.58;75.16;102507.28;5050624;28;20084;-75
2021/04/22 01:19:13;;;;;;;24.88;6.20;;;;;;;3.56;75.40;102507.38;5047763;28;20111;-76
2021/04/22 01:21:38;;;;;;;26.95;7.15;;;;;;;3.53;75.34;102510.97;5050342;28;21204;-75
2021/04/22 01:24:04;;;;;;;28.70;7.03;;;;;;;3.56;75.34;102510.00;5062610;28;20482;-77
2021/04/22 01:26:30;;;;;;;33.25;7.32;;;;;;;3.59;75.46;102509.88;5042211;28;20083;-75
2021/04/22 01:28:55;;;;;;;39.83;7.50;;;;;;;3.65;74.45;102516.66;5042538;28;20370;-75
2021/04/22 01:31:22;;;;;;;24.20;7.50;;;;;;;3.65;74.45;102516.66;5051822;28;20036;-76
2021/04/22 01:33:48;;;;;;;30.88;7.88;;;;;;;3.68;74.44;102521.78;5050299;28;20070;-76
2021/04/22 01:36:13;;;;;;;26.80;6.30;;;;;;;3.70;74.45;102519.09;5048989;28;20024;-76
2021/04/22 01:38:39;;;;;;;28.63;7.53;;;;;;;3.70;74.94;102519.94;5050806;28;20483;-76
2021/04/22 01:41:05;;;;;;;29.83;7.10;;;;;;;3.50;74.79;102491.78;5046733;28;20033;-76
2021/04/22 01:43:32;;;;;;;27.70;6.22;;;;;;;3.34;74.58;102471.31;5030693;28;20502;-76
2021/04/22 01:45:59;;;;;;;32.75;7.72;;;;;;;3.58;75.14;102523.13;5047416;28;20076;-75
2021/04/22 01:48:26;;;;;;;33.80;7.07;;;;;;;3.52;75.56;102518.97;5046163;28;20062;-75
2021/04/22 01:50:51;;;;;;;29.38;7.88;;;;;;;3.50;75.75;102523.44;5048474;28;20110;-74
2021/04/22 01:53:17;;;;;;;26.98;7.32;;;;;;;3.54;76.01;102535.59;5046511;28;20317;-78
2021/04/22 01:55:47;;;;;;;32.35;7.20;;;;;;;3.53;75.62;102529.44;5045004;28;20063;-77
2021/04/22 01:58:19;;;;;;;28.85;7.25;;;;;;;3.51;75.56;102535.72;5045078;28;20145;-76
2021/04/22 02:00:51;;;;;;;24.40;7.53;;;;;;;3.52;75.46;102538.31;5049909;28;20535;-76
2021/04/22 02:03:16;;;;;;;31.80;6.65;;;;;;;3.53;75.36;102540.00;5046439;28;20039;-74
2021/04/22 02:05:42;;;;;;;31.80;9.10;;;;;;;3.32;75.38;102501.34;5031521;28;20028;-74
2021/04/22 02:08:09;;;;;;;27.55;8.10;;;;;;;3.51;75.25;102539.25;5039918;28;20032;-75
2021/04/22 02:10:36;;;;;;;34.53;7.75;;;;;;;3.43;75.81;102537.84;5042771;28;20534;-74
2021/04/22 02:13:03;;;;;;;27.35;7.47;;;;;;;3.37;76.23;102538.97;5043926;28;20044;-74
2021/04/22 02:15:30;;;;;;;30.00;7.45;;;;;;;3.37;75.93;102542.44;5047244;28;20032;-75
2021/04/22 02:17:56;;;;;;;37.80;8.68;;;;;;;3.40;75.84;102544.09;5044087;28;20051;-75
2021/04/22 02:20:22;;;;;;;31.02;7.68;;;;;;;3.38;75.99;102540.69;5050152;28;20033;-74
2021/04/22 02:22:49;;;;;;;28.33;7.63;;;;;;;3.15;76.26;102502.91;5045995;28;20071;-74
2021/04/22 02:25:18;;;;;;;30.08;7.68;;;;;;;3.34;75.65;102532.00;5045977;28;20025;-75
2021/04/22 02:27:45;;;;;;;27.55;7.45;;;;;;;3.39;76.21;102538.88;5047322;28;20130;-74
2021/04/22 02:30:26;;;;;;;28.77;7.10;;;;;;;3.39;75.98;102537.13;5044337;28;20185;-75
2021/04/22 02:32:52;;;;;;;29.60;7.07;;;;;;;3.34;76.29;102532.00;5042271;28;20079;-74
2021/04/22 02:35:22;;;;;;;26.30;7.68;;;;;;;3.26;75.90;102522.72;5046627;28;20383;-75
2021/04/22 02:37:48;;;;;;;33.38;8.48;;;;;;;3.43;75.83;102540.50;5046342;28;20278;-74
2021/04/22 02:40:17;;;;;;;30.90;7.40;;;;;;;3.41;75.70;102534.41;5048595;28;20054;-76
2021/04/22 02:42:44;;;;;;;26.95;7.32;;;;;;;3.43;76.01;102543.97;5050921;28;20043;-74
2021/04/22 02:45:13;;;;;;;19.45;6.90;;;;;;;3.42;76.19;102544.88;5046602;28;20554;-75
2021/04/22 02:47:38;;;;;;;23.45;6.70;;;;;;;3.40;76.19;102541.44;5043621;28;20090;-75
2021/04/22 02:50:10;;;;;;;34.45;7.63;;;;;;;3.44;75.86;102539.56;5047387;28;20045;-76
2021/04/22 02:52:35;;;;;;;23.13;7.20;;;;;;;3.22;76.22;102514.94;5039501;28;20036;-76
2021/04/22 02:55:01;;;;;;;26.65;6.82;;;;;;;3.11;76.05;102495.19;5051307;28;20028;-76
2021/04/22 02:57:27;;;;;;;26.00;7.40;;;;;;;3.39;76.46;102546.81;5047827;28;20033;-76
2021/04/22 02:59:52;;;;;;;34.22;6.95;;;;;;;3.40;76.92;102537.97;5045698;28;20055;-75
2021/04/22 03:02:17;;;;;;;28.08;7.32;;;;;;;3.40;75.78;102544.09;5049477;28;20032;-75
2021/04/22 03:04:43;;;;;;;25.70;7.05;;;;;;;3.44;75.41;102548.34;5050963;28;20041;-75
2021/04/22 03:07:08;;;;;;;25.75;6.80;;;;;;;3.42;75.83;102546.69;5053152;28;20089;-75
2021/04/22 03:09:34;;;;;;;24.38;7.05;;;;;;;3.42;75.50;102541.41;5049203;28;20029;-75
2021/04/22 03:11:59;;;;;;;29.50;6.85;;;;;;;3.40;75.92;102552.00;5054241;28;20036;-75
2021/04/22 03:14:24;;;;;;;25.45;7.07;;;;;;;3.35;76.44;102544.28;5044663;28;20036;-76
2021/04/22 03:16:50;;;;;;;25.73;7.55;;;;;;;3.33;75.79;102551.41;5053408;28;20048;-74
2021/04/22 03:19:15;;;;;;;30.50;7.15;;;;;;;3.32;75.81;102541.81;5047821;28;20055;-75
2021/04/22 03:21:41;;;;;;;29.33;7.22;;;;;;;3.29;76.02;102554.25;5052368;28;20040;-75
2021/04/22 03:24:07;;;;;;;26.83;6.85;;;;;;;3.28;76.24;102552.53;5040180;28;20481;-75
2021/04/22 03:26:32;;;;;;;23.23;7.05;;;;;;;3.26;76.17;102547.31;5030776;28;20037;-75
2021/04/22 03:28:58;;;;;;;29.58;7.20;;;;;;;3.27;76.08;102554.31;5050293;28;20036;-73
2021/04/22 03:31:25;;;;;;;28.42;6.68;;;;;;;3.25;76.49;102547.41;5049615;28;20161;-75
2021/04/22 03:33:51;;;;;;;25.25;6.57;;;;;;;3.06;75.79;102524.41;5047372;28;20035;-74
2021/04/22 03:36:16;;;;;;;24.48;6.35;;;;;;;3.21;75.71;102549.28;5052160;28;20111;-74
2021/04/22 03:38:42;;;;;;;27.60;7.05;;;;;;;3.17;75.63;102553.00;5064046;28;20018;-74
2021/04/22 03:41:07;;;;;;;23.13;5.90;;;;;;;2.79;75.48;102499.97;5054924;28;20597;-75
2021/04/22 03:43:33;;;;;;;26.67;6.82;;;;;;;3.08;76.11;102554.22;5027954;28;20205;-75
2021/04/22 03:45:58;;;;;;;23.73;7.32;;;;;;;3.13;75.62;102557.50;5066096;28;20047;-76
2021/04/22 03:48:24;;;;;;;31.98;7.10;;;;;;;3.04;76.74;102548.22;5047646;28;20044;-75
2021/04/22 03:50:49;;;;;;;23.52;5.97;;;;;;;3.12;76.08;102555.78;5035946;28;20059;-75
2021/04/22 03:53:14;;;;;;;22.63;6.45;;;;;;;2.95;75.64;102523.97;5044338;28;20139;-75
2021/04/22 03:55:40;;;;;;;25.35;6.85;;;;;;;3.13;75.64;102556.66;5056690;28;20071;-75
2021/04/22 03:58:05;;;;;;;27.95;6.53;;;;;;;3.09;76.03;102566.50;5049156;28;20179;-76
2021/04/22 04:00:31;;;;;;;24.13;6.93;;;;;;;3.04;76.44;102566.69;5048707;28;20502;-76
2021/04/22 04:02:56;;;;;;;24.45;6.57;;;;;;;3.06;76.44;102562.16;5049052;28;20032;-76
2021/04/22 04:05:22;;;;;;;24.80;6.35;;;;;;;2.93;76.63;102539.84;5036733;28;20100;-76
2021/04/22 04:07:48;;;;;;;23.88;7.00;;;;;;;3.10;76.21;102568.22;5044728;28;20028;-76
2021/04/22 04:10:13;;;;;;;23.60;5.43;;;;;;;3.08;76.27;102567.41;5061476;28;20055;-76
2021/04/22 04:12:39;;;;;;;37.17;7.93;;;;;;;2.98;76.57;102564.28;5049035;28;20075;-75
2021/04/22 04:15:07;;;;;;;23.25;5.97;;;;;;;2.93;76.99;102571.50;5058365;28;20031;-76
2021/04/22 04:17:32;;;;;;;20.52;6.15;;;;;;;2.72;77.31;102546.81;5067068;28;20033;-76
2021/04/22 04:19:58;;;;;;;33.22;7.38;;;;;;;2.89;77.03;102575.19;5059669;28;20576;-77
2021/04/22 04:22:24;;;;;;;28.55;7.25;;;;;;;2.81;77.24;102578.13;5051318;28;20025;-75
2021/04/22 04:24:49;;;;;;;24.40;6.85;;;;;;;2.77;78.00;102570.41;5050521;28;20025;-76
2021/04/22 04:27:15;;;;;;;27.25;7.70;;;;;;;2.73;77.96;102570.50;5047366;28;20475;-76
2021/04/22 04:29:40;;;;;;;23.10;6.63;;;;;;;2.72;77.94;102570.56;5045587;28;20049;-76
2021/04/22 04:32:06;;;;;;;29.65;6.88;;;;;;;2.76;77.98;102566.88;5060971;28;20048;-75
2021/04/22 04:34:31;;;;;;;27.20;6.85;;;;;;;2.76;77.71;102572.16;5048672;28;20020;-76
2021/04/22 04:36:57;;;;;;;24.45;6.38;;;;;;;2.59;77.98;102541.19;5056855;28;20051;-75
2021/04/22 04:39:23;;;;;;;29.73;7.07;;;;;;;2.76;77.96;102574.81;5038899;28;20098;-76
2021/04/22 04:41:48;;;;;;;25.40;7.68;;;;;;;2.70;77.96;102575.91;5051626;28;20044;-75
2021/04/22 04:44:14;;;;;;;28.63;6.68;;;;;;;2.66;77.94;102569.00;5034068;28;20468;-75
2021/04/22 04:46:40;;;;;;;21.63;6.25;;;;;;;2.72;78.29;102574.06;5056946;28;20036;-75
2021/04/22 04:49:06;;;;;;;26.55;6.95;;;;;;;2.57;78.05;102546.53;5052601;28;20049;-75
2021/04/22 04:51:32;;;;;;;25.83;7.38;;;;;;;2.82;77.95;102584.25;5054812;28;20055;-75
2021/04/22 04:53:58;;;;;;;26.55;7.15;;;;;;;2.83;78.23;102581.56;5052032;28;20028;-74
2021/04/22 04:56:23;;;;;;;25.90;6.63;;;;;;;2.88;77.79;102584.03;5055420;28;20505;-76
2021/04/22 04:58:49;;;;;;;26.17;6.78;;;;;;;2.87;77.85;102587.56;5049510;28;20040;-74
2021/04/22 05:01:15;;;;;;;23.27;6.28;;;;;;;2.90;77.87;102595.38;5057426;28;20568;-76
2021/04/22 05:03:40;;;;;;;23.77;6.95;;;;;;;2.99;77.77;102596.75;5045141;28;20033;-76
2021/04/22 05:06:06;;;;;;;29.80;6.38;;;;;;;3.04;77.37;102598.34;5050395;28;20029;-74
2021/04/22 05:08:33;;;;;;;27.65;7.20;;;;;;;3.10;77.60;102602.50;5046893;28;20081;-76
2021/04/22 05:10:59;;;;;;;31.40;6.53;;;;;;;3.20;76.52;102601.19;5046957;28;20634;-74
2021/04/22 05:13:25;;;;;;;40.83;6.93;;;;;;;3.33;76.12;102611.25;5045459;28;20111;-75
2021/04/22 05:15:50;;;;;;;37.90;7.00;;;;;;;3.42;75.96;102612.66;5048575;28;20106;-74
2021/04/22 05:18:16;;;;;;;26.67;6.00;;;;;;;3.55;75.58;102615.66;5045652;28;20039;-77
2021/04/22 05:20:41;;;;;;;34.10;6.70;;;;;;;3.65;74.00;102614.38;5031990;28;20029;-74
2021/04/22 05:23:07;;;;;;;20.05;5.70;;;;;;;3.57;73.47;102590.03;5044148;28;20368;-75
2021/04/22 05:25:32;;;;;;;19.13;5.65;;;;;;;3.81;73.58;102620.69;5051494;28;20032;-74
2021/04/22 05:27:58;;;;;;;21.73;5.75;;;;;;;3.87;73.49;102627.50;5045168;28;20036;-75
2021/04/22 05:30:24;;;;;;;22.67;5.80;;;;;;;3.93;73.10;102635.16;5055876;28;20536;-75
2021/04/22 05:32:52;;;;;;;22.70;5.82;;;;;;;3.92;72.60;102614.13;5045397;28;20369;-74
2021/04/22 05:35:17;;;;;;;22.33;5.53;;;;;;;4.04;73.33;102636.47;5053260;28;20047;-75
2021/04/22 05:37:43;;;;;;;22.45;5.55;;;;;;;4.10;72.64;102649.44;5049110;28;20124;-76
2021/04/22 05:40:09;;;;;;;24.13;5.78;;;;;;;4.19;72.77;102641.09;5053410;28;20406;-74
2021/04/22 05:42:35;;;;;;;23.65;5.97;;;;;;;4.28;73.01;102642.50;5046700;28;20482;-77
2021/04/22 05:45:00;;;;;;;18.75;4.80;;;;;;;4.37;72.51;102647.34;5048475;28;20028;-75
2021/04/22 05:47:26;;;;;;;23.45;5.25;;;;;;;4.52;72.00;102644.97;5046406;28;20434;-75
2021/04/22 05:49:52;;;;;;;21.85;5.07;;;;;;;4.58;71.96;102628.81;5054996;28;20057;-76
2021/04/22 05:52:17;;;;;;;22.45;5.70;;;;;;;4.36;71.41;102582.19;5043519;28;20047;-75
2021/04/22 05:54:43;;;;;;;24.77;5.20;;;;;;;4.66;71.61;102609.97;5047168;28;20097;-75
2021/04/22 05:57:08;;;;;;;21.25;5.40;;;;;;;5.07;71.12;102654.78;5054712;28;20028;-75
2021/04/22 05:59:34;;;;;;;26.63;5.18;;;;;;;5.09;70.52;102639.66;5046007;28;20714;-75
2021/04/22 06:01:59;;;;;;;17.83;5.07;;;;;;;5.30;69.20;102647.53;5080127;28;20051;-74
2021/04/22 06:04:25;;;;;;;19.25;4.75;;;;;;;5.43;69.50;102655.75;5039346;28;20071;-72
2021/04/22 06:06:50;;;;;;;19.52;4.32;;;;;;;5.52;69.75;102661.44;5048072;28;20049;-76
2021/04/22 06:09:16;;;;;;;23.00;4.82;;;;;;;5.64;68.56;102665.28;5061319;28;20039;-77
2021/04/22 06:11:41;;;;;;;18.73;4.70;;;;;;;5.80;67.84;102660.06;5062399;28;20040;-77
2021/04/22 06:14:07;;;;;;;21.45;4.85;;;;;;;5.90;66.96;102663.09;5060991;28;20086;-82
2021/04/22 06:16:32;;;;;;;23.88;5.55;;;;;;;6.02;67.13;102660.78;5054614;28;20059;-76
2021/04/22 06:18:58;;;;;;;17.17;4.28;;;;;;;6.13;66.52;102675.22;5053765;28;20126;-77
2021/04/22 06:21:23;;;;;;;17.30;4.78;;;;;;;6.08;65.91;102634.00;5054593;28;20093;-77
2021/04/22 06:23:49;;;;;;;28.80;5.50;;;;;;;6.54;66.08;102662.53;5054562;28;20048;-77
2021/04/22 06:26:14;;;;;;;29.20;5.25;;;;;;;6.42;65.43;102640.16;5063072;28;20441;-81
2021/04/22 06:28:40;;;;;;;21.38;5.07;;;;;;;6.65;65.77;102676.06;5054771;28;20475;-77
2021/04/22 06:31:06;;;;;;;22.00;5.07;;;;;;;6.76;65.63;102674.63;5052412;28;20607;-77
2021/04/22 06:33:31;;;;;;;20.58;4.75;;;;;;;6.78;65.15;102664.78;5050849;28;20025;-81
2021/04/22 06:35:57;;;;;;;26.08;4.85;;;;;;;6.89;65.52;102688.94;5055881;28;20037;-77
2021/04/22 06:38:22;;;;;;;25.65;4.97;;;;;;;6.85;64.97;102663.53;5055209;28;20029;-77
2021/04/22 06:40:48;;;;;;;27.08;4.95;;;;;;;7.10;63.82;102667.47;5064648;28;20040;-76
2021/04/22 06:43:14;;;;;;;27.08;5.85;;;;;;;7.59;63.08;102687.75;5059934;28;20479;-81
2021/04/22 06:45:42;;;;;;;21.17;5.07;;;;;;;8.15;61.46;102684.47;5061099;28;20036;-76
2021/04/22 06:48:13;;;;;;;26.73;5.45;;;;;;;8.99;58.95;102677.63;5052913;28;20029;-77
2021/04/22 06:50:39;;;;;;;18.30;4.75;;;;;;;9.78;56.28;102691.13;5053034;28;20542;-78
2021/04/22 06:53:05;;;;;;;21.48;4.65;;;;;;;10.08;55.25;102682.91;5045207;28;20037;-77
2021/04/22 06:55:31;;;;;;;16.90;4.40;;;;;;;10.61;54.37;102692.66;5051002;28;20044;-78
2021/04/22 06:57:58;;;;;;;18.48;4.85;;;;;;;11.48;52.19;102694.44;5033313;28;20043;-80
2021/04/22 07:00:26;;;;;;;19.90;4.75;;;;;;;11.94;51.21;102688.31;5052513;28;20445;-80
2021/04/22 07:02:52;;;;;;;22.48;5.03;;;;;;;12.28;49.52;102684.06;5048639;28;20293;-80
2021/04/22 07:05:18;;;;;;;13.80;4.30;;;;;;;12.32;48.65;102696.22;5038872;28;20595;-80
2021/04/22 07:07:44;;;;;;;17.63;4.28;;;;;;;12.46;45.78;102626.38;5051627;28;20597;-80
2021/04/22 07:10:10;;;;;;;18.17;4.20;;;;;;;13.74;43.50;102698.25;5055657;28;20127;-84
2021/04/22 07:12:36;;;;;;;15.00;4.15;;;;;;;13.96;41.79;102653.50;5052753;28;20012;-81
2021/04/22 07:15:03;;;;;;;19.48;4.25;;;;;;;14.39;40.96;102706.19;5061125;28;20513;-80
2021/04/22 07:17:28;;;;;;;15.23;3.85;;;;;;;14.71;40.30;102701.69;5063195;28;20027;-81
2021/04/22 07:19:55;;;;;;;18.95;3.97;;;;;;;14.53;39.74;102679.97;5062698;28;20161;-78
2021/04/22 07:22:24;;;;;;;17.83;3.70;;;;;;;13.85;41.16;102712.59;5039630;28;20045;-78
2021/04/22 07:24:50;;;;;;;19.42;4.20;;;;;;;13.33;41.88;102714.09;5054078;28;20090;-80
2021/04/22 07:27:15;;;;;;;17.67;4.13;;;;;;;13.00;43.85;102710.50;5083801;28;20033;-80
2021/04/22 07:29:45;;;;;;;15.38;3.33;;;;;;;13.59;42.41;102718.31;5050278;28;20047;-80
2021/04/22 07:32:12;;;;;;;14.40;3.67;;;;;;;14.63;38.76;102721.16;5039952;28;20090;-80
2021/04/22 07:34:37;;;;;;;12.65;2.88;;;;;;;14.84;38.07;102710.38;5055640;28;20055;-79
2021/04/22 07:37:04;;;;;;;12.52;4.13;;;;;;;14.44;38.29;102721.06;5058958;28;20643;-80
2021/04/22 07:39:29;;;;;;;14.60;3.88;;;;;;;13.99;39.46;102723.03;5058711;28;20040;-81
2021/04/22 07:41:55;;;;;;;11.35;3.13;;;;;;;13.93;40.10;102728.91;5056027;28;20040;-81
2021/04/22 07:44:21;;;;;;;12.98;3.08;;;;;;;14.06;38.76;102729.56;5037261;28;20044;-81
2021/04/22 07:46:47;;;;;;;10.35;2.70;;;;;;;14.56;38.03;102725.38;5056948;28;20036;-81
2021/04/22 07:49:12;;;;;;;10.40;2.78;;;;;;;14.96;37.24;102731.78;5054143;28;20032;-81
2021/04/22 07:51:38;;;;;;;12.52;2.63;;;;;;;14.47;36.59;102735.06;5060391;28;20629;-81
2021/04/22 07:54:04;;;;;;;10.82;2.38;;;;;;;13.38;38.27;102720.91;5051430;28;20126;-81
2021/04/22 07:56:29;;;;;;;12.15;2.65;;;;;;;12.61;39.82;102739.50;5040097;28;20056;-81
2021/04/22 07:58:55;;;;;;;12.82;2.72;;;;;;;12.32;41.17;102731.03;5052174;28;20035;-81
2021/04/22 08:01:21;;;;;;;9.90;2.10;;;;;;;13.30;38.96;102745.66;5054849;28;20434;-79
2021/04/22 08:03:46;;;;;;;15.18;4.47;;;;;;;14.20;37.60;102738.28;5053291;28;20063;-79
2021/04/22 08:06:13;;;;;;;11.95;3.10;;;;;;;14.67;36.84;102732.47;5053336;28;20028;-80
2021/04/22 08:08:38;;;;;;;8.63;3.75;;;;;;;14.79;36.30;102725.22;5050109;28;20522;-79
2021/04/22 08:11:04;;;;;;;9.05;2.70;;;;;;;15.63;35.43;102747.38;5049906;28;20036;-81
2021/04/22 08:13:29;;;;;;;11.40;2.65;;;;;;;16.92;32.91;102739.78;5041378;28;20032;-81
2021/04/22 08:15:55;;;;;;;8.10;2.35;;;;;;;17.54;32.96;102743.72;5023512;28;20041;-82
2021/04/22 08:18:26;;;;;;;10.80;2.72;;;;;;;17.06;33.06;102743.84;5051393;28;20501;-80
2021/04/22 08:20:52;;;;;;;10.60;2.70;;;;;;;16.05;34.30;102749.81;5074483;28;20494;-78
2021/04/22 08:23:17;;;;;;;12.70;2.72;;;;;;;15.42;35.49;102743.81;5056202;28;20115;-78
2021/04/22 08:25:50;;;;;;;9.70;2.38;;;;;;;14.84;36.22;102745.31;5064027;28;20047;-76
2021/04/22 08:28:18;;;;;;;11.48;2.60;;;;;;;14.39;36.64;102726.81;5056110;28;20028;-77
2021/04/22 08:30:50;;;;;;;;;;;;;;;14.26;37.41;102756.56;5056438;28;20163;-79
2021/04/22 08:33:17;;;;;;;10.30;2.60;;;;;;;13.53;38.62;102753.69;5058346;28;19975;-78
2021/04/22 08:35:43;;;;;;;10.13;2.72;;;;;;;12.82;40.01;102755.69;5058028;28;20063;-80
2021/04/22 08:38:09;;;;;;;14.45;2.72;;;;;;;12.49;40.76;102762.72;5055013;28;20068;-81
2021/04/22 08:40:35;;;;;;;14.95;3.05;;;;;;;13.19;39.33;102751.88;5059188;28;20071;-80
2021/04/22 08:43:01;;;;;;;11.15;2.65;;;;;;;13.86;38.78;102749.19;5055017;28;20062;-81
2021/04/22 08:45:27;;;;;;;11.43;2.60;;;;;;;14.59;37.15;102748.41;5054796;28;20498;-82
2021/04/22 08:47:53;;;;;;;9.45;2.70;;;;;;;15.53;34.93;102755.41;5045677;28;20048;-79
2021/04/22 08:50:25;;;;;;;10.43;2.53;;;;;;;16.37;33.48;102760.25;5044535;28;20052;-78
2021/04/22 08:52:53;;;;;;;12.93;2.72;;;;;;;16.79;33.20;102763.53;5047148;28;20232;-78
2021/04/22 08:55:21;;;;;;;;;;;;;;;16.20;33.73;102761.84;5047827;28;20127;-81
2021/04/22 08:57:47;;;;;;;6.90;2.20;;;;;;;15.38;34.39;102768.44;5047507;28;20344;-80
2021/04/22 09:00:15;;;;;;;10.13;2.25;;;;;;;14.99;35.38;102736.88;5046307;28;20038;-78
2021/04/22 09:02:41;;;;;;;;;;;;;;;15.67;34.56;102754.19;5047734;28;20036;-79
2021/04/22 09:05:07;;;;;;;11.60;2.78;;;;;;;15.64;34.01;102751.75;5055226;28;20388;-80
2021/04/22 09:07:33;;;;;;;11.50;2.78;;;;;;;14.76;36.18;102760.41;5073258;28;20037;-80
2021/04/22 09:10:00;;;;;;;11.15;2.75;;;;;;;13.87;37.55;102765.16;5051586;28;20067;-80
2021/04/22 09:12:26;;;;;;;10.83;2.97;;;;;;;13.37;38.99;102738.81;5051031;28;20048;-81
2021/04/22 09:15:10;;;;;;;10.88;2.50;;;;;;;14.03;38.17;102742.41;5055174;28;20032;-80
2021/04/22 09:17:36;;;;;;;10.15;2.80;;;;;;;15.24;35.97;102746.31;5058505;28;20048;-78
2021/04/22 09:20:10;;;;;;;10.68;2.40;;;;;;;16.49;34.23;102746.63;5057803;28;20048;-77
2021/04/22 09:22:41;;;;;;;10.38;2.20;;;;;;;17.31;32.43;102752.22;5050847;28;20025;-78
2021/04/22 09:25:21;;;;;;;8.43;2.78;;;;;;;17.70;31.62;102749.28;5051473;28;20036;-81
2021/04/22 09:27:47;;;;;;;10.00;2.92;;;;;;;17.75;30.79;102714.56;5030498;28;20036;-82
2021/04/22 09:30:17;;;;;;;7.35;2.47;;;;;;;17.69;30.90;102728.69;5047332;28;20762;-81
2021/04/22 09:32:43;;;;;;;7.20;2.50;;;;;;;17.74;30.98;102750.66;5042047;28;20033;-85
2021/04/22 09:35:15;;;;;;;10.07;3.10;;;;;;;17.79;32.14;102749.34;5050765;28;20043;-83
2021/04/22 09:37:46;;;;;;;9.48;3.13;;;;;;;17.62;32.41;102748.34;5049738;28;20040;-82
2021/04/22 09:40:14;;;;;;;12.25;2.85;;;;;;;17.58;32.32;102753.19;5045934;28;20064;-82
2021/04/22 09:42:40;;;;;;;6.90;2.42;;;;;;;16.55;33.36;102743.34;5049436;28;20969;-83
2021/04/22 09:45:08;;;;;;;11.85;2.88;;;;;;;16.43;32.93;102757.97;5054217;28;20025;-81
2021/04/22 09:47:34;;;;;;;8.55;2.88;;;;;;;16.45;33.42;102762.22;5054197;28;20039;-82
2021/04/22 09:50:00;;;;;;;14.90;3.30;;;;;;;16.76;33.56;102761.97;5063391;28;20051;-82
2021/04/22 09:52:32;;;;;;;13.00;3.10;;;;;;;16.84;33.76;102770.19;5039354;28;20044;-83
2021/04/22 09:54:59;;;;;;;10.40;3.00;;;;;;;17.01;32.35;102765.06;5048279;28;20036;-82
2021/04/22 09:57:27;;;;;;;11.85;2.60;;;;;;;17.48;31.77;102750.59;5058878;28;20025;-82
2021/04/22 09:59:53;;;;;;;10.82;2.67;;;;;;;17.65;31.40;102758.81;5057711;28;20025;-84
2021/04/22 10:02:19;;;;;;;10.05;2.45;;;;;;;17.60;31.52;102760.16;5055334;28;20167;-83
2021/04/22 10:04:48;;;;;;;11.45;2.92;;;;;;;17.96;31.12;102763.84;5045342;28;20035;-81
2021/04/22 10:07:25;;;;;;;10.32;3.17;;;;;;;18.26;30.27;102769.88;5062874;28;20107;-82
2021/04/22 10:09:59;;;;;;;9.35;2.88;;;;;;;18.33;30.65;102758.28;5057709;28;20044;-83
2021/04/22 10:12:27;;;;;;;13.65;2.80;;;;;;;17.90;31.60;102768.00;5061692;28;20043;-84
2021/04/22 10:14:54;;;;;;;11.77;3.00;;;;;;;18.21;29.73;102757.66;5060838;28;20042;-85
2021/04/22 10:17:25;;;;;;;10.07;2.67;;;;;;;17.53;32.01;102756.34;5058390;28;20025;-83
2021/04/22 10:19:59;;;;;;;8.02;2.33;;;;;;;17.91;30.20;102759.75;5062779;28;20043;-83
2021/04/22 10:22:44;;;;;;;7.60;2.25;;;;;;;18.00;30.33;102728.28;5061145;28;20021;-86
2021/04/22 10:25:17;;;;;;;5.97;2.35;;;;;;;18.44;30.38;102759.88;5062560;28;20080;-83
2021/04/22 10:27:43;;;;;;;8.20;2.72;;;;;;;17.89;30.91;102764.47;5060094;28;20085;-78
2021/04/22 10:30:14;;;;;;;11.32;3.08;;;;;;;17.05;32.56;102761.03;5059951;28;20024;-87
2021/04/22 10:32:42;;;;;;;11.27;3.00;;;;;;;16.51;34.17;102750.84;5051234;28;20045;-82
2021/04/22 10:35:11;;;;;;;9.27;2.53;;;;;;;16.29;34.27;102768.19;5055039;28;20064;-86
2021/04/22 10:37:40;;;;;;;11.07;2.90;;;;;;;15.88;35.20;102762.16;5083394;28;20028;-80
2021/04/22 10:40:06;;;;;;;12.27;2.92;;;;;;;15.31;35.95;102744.75;5050461;28;20066;-81
2021/04/22 10:42:33;;;;;;;10.50;2.97;;;;;;;15.24;37.17;102762.44;5058482;28;20033;-91
2021/04/22 10:45:02;;;;;;;11.02;3.05;;;;;;;15.39;35.50;102756.69;5059969;28;20115;-85
2021/04/22 10:47:28;;;;;;;13.70;3.35;;;;;;;15.43;34.43;102758.94;5057887;28;20089;-86
2021/04/22 10:49:54;;;;;;;10.77;2.95;;;;;;;15.50;35.18;102759.25;5057502;28;20044;-78
2021/04/22 10:52:21;;;;;;;13.48;2.97;;;;;;;15.37;35.23;102761.34;5064192;28;20519;-79
2021/04/22 10:54:47;;;;;;;12.10;3.08;;;;;;;15.17;36.07;102760.44;5061026;28;20111;-83
2021/04/22 10:57:16;;;;;;;10.05;2.75;;;;;;;15.11;35.19;102764.53;5061738;28;20050;-83
2021/04/22 10:59:44;;;;;;;12.63;2.83;;;;;;;14.66;36.19;102771.94;5060358;28;20025;-84
2021/04/22 11:02:13;;;;;;;;;;;;;;;14.32;37.08;102763.25;5057482;28;20039;-84
2021/04/22 11:04:39;;;;;;;10.02;3.00;;;;;;;14.41;36.59;102732.91;5045376;28;19912;-77
2021/04/22 11:07:25;;;;;;;6.88;2.67;;;;;;;14.65;36.89;102727.25;5061840;28;20029;-79
2021/04/22 11:09:55;;;;;;;10.80;3.33;;;;;;;15.28;37.06;102766.53;5058294;28;20067;-79
2021/04/22 11:12:25;;;;;;;12.57;2.92;;;;;;;15.69;35.97;102765.63;5058140;28;20036;-80
2021/04/22 11:14:52;;;;;;;10.95;3.55;;;;;;;15.27;36.84;102769.38;5056735;28;20028;-78
2021/04/22 11:17:21;;;;;;;10.27;3.10;;;;;;;14.67;37.08;102697.53;5058715;28;20503;-80
2021/04/22 11:19:49;;;;;;;10.32;3.40;;;;;;;14.68;36.79;102753.88;5060138;28;20337;-79
2021/04/22 11:22:18;;;;;;;;;;;;;;;14.55;37.75;102766.66;5057096;28;20017;-79